createdAt,value
2018-07-21T00:00:02.234Z,24.85
2018-07-21T00:01:17.177Z,24.79
2018-07-21T00:02:31.135Z,24.75
2018-07-21T00:03:45.569Z,24.71
2018-07-21T00:05:00.043Z,24.66
2018-07-21T00:06:14.225Z,24.59
2018-07-21T00:07:28.420Z,24.5
2018-07-21T00:08:42.897Z,24.42
2018-07-21T00:09:57.488Z,24.34
2018-07-21T00:11:12.239Z,24.29
2018-07-21T00:12:26.419Z,24.24
2018-07-21T00:13:40.348Z,24.2
2018-07-21T00:14:55.447Z,24.19
2018-07-21T00:16:09.861Z,24.18
2018-07-21T00:17:24.535Z,24.18
2018-07-21T00:18:38.990Z,24.18
2018-07-21T00:19:53.549Z,24.17
2018-07-21T00:21:08.013Z,24.16
2018-07-21T00:22:22.725Z,24.15
2018-07-21T00:23:36.893Z,24.15
2018-07-21T00:24:50.829Z,24.13
2018-07-21T00:26:05.269Z,24.11
2018-07-21T00:27:18.957Z,24.12
2018-07-21T00:28:33.394Z,24.11
2018-07-21T00:29:47.832Z,24.14
2018-07-21T00:31:02.491Z,24.14
2018-07-21T00:32:17.174Z,24.16
2018-07-21T00:33:31.615Z,24.15
2018-07-21T00:34:46.033Z,24.14
2018-07-21T00:36:00.908Z,24.1
2018-07-21T00:37:14.579Z,24.05
2018-07-21T00:38:29.252Z,24
2018-07-21T00:39:43.926Z,23.93
2018-07-21T00:40:58.465Z,23.89
2018-07-21T00:42:12.931Z,23.84
2018-07-21T00:43:27.154Z,23.82
2018-07-21T00:44:41.890Z,23.79
2018-07-21T00:45:56.376Z,23.77
2018-07-21T00:47:11.097Z,23.74
2018-07-21T00:48:26.051Z,23.72
2018-07-21T00:49:40.256Z,23.69
2018-07-21T00:50:55.142Z,23.66
2018-07-21T00:52:09.583Z,23.64
2018-07-21T00:53:24.557Z,23.58
2018-07-21T00:54:38.986Z,23.53
2018-07-21T00:55:53.920Z,23.5
2018-07-21T00:57:09.265Z,23.45
2018-07-21T00:58:23.984Z,23.42
2018-07-21T00:59:38.445Z,23.4
2018-07-21T01:00:53.003Z,23.36
2018-07-21T01:02:07.217Z,23.32
2018-07-21T01:03:21.721Z,23.28
2018-07-21T01:04:35.926Z,23.23
2018-07-21T01:05:50.421Z,23.18
2018-07-21T01:07:05.122Z,23.15
2018-07-21T01:08:19.844Z,23.11
2018-07-21T01:09:34.325Z,23.08
2018-07-21T01:10:49.018Z,23.05
2018-07-21T01:12:03.656Z,23
2018-07-21T01:13:17.573Z,22.99
2018-07-21T01:14:32.027Z,22.96
2018-07-21T01:15:46.235Z,22.94
2018-07-21T01:17:00.700Z,22.92
2018-07-21T01:18:15.670Z,22.91
2018-07-21T01:19:29.883Z,22.89
2018-07-21T01:20:44.607Z,22.83
2018-07-21T01:21:59.628Z,22.79
2018-07-21T01:23:14.327Z,22.76
2018-07-21T01:24:29.049Z,22.74
2018-07-21T01:25:44.019Z,22.72
2018-07-21T01:26:58.217Z,22.71
2018-07-21T01:28:13.030Z,22.73
2018-07-21T01:29:27.438Z,22.72
2018-07-21T01:30:42.144Z,22.72
2018-07-21T01:31:57.053Z,22.73
2018-07-21T01:33:12.308Z,22.74
2018-07-21T01:34:27.013Z,22.76
2018-07-21T01:35:40.937Z,22.77
2018-07-21T01:36:54.352Z,22.78
2018-07-21T01:38:09.062Z,22.81
2018-07-21T01:39:23.014Z,22.83
2018-07-21T01:40:37.446Z,22.81
2018-07-21T01:41:52.143Z,22.81
2018-07-21T01:43:07.051Z,22.79
2018-07-21T01:44:21.774Z,22.78
2018-07-21T01:45:35.714Z,22.75
2018-07-21T01:46:50.871Z,22.74
2018-07-21T01:48:05.971Z,22.75
2018-07-21T01:49:20.441Z,22.74
2018-07-21T01:50:34.894Z,22.77
2018-07-21T01:51:48.840Z,22.79
2018-07-21T01:53:02.999Z,22.8
2018-07-21T01:54:17.896Z,22.82
2018-07-21T01:55:32.105Z,22.81
2018-07-21T01:56:46.555Z,22.8
2018-07-21T01:58:01.014Z,22.82
2018-07-21T01:59:15.455Z,22.85
2018-07-21T02:00:29.408Z,22.87
2018-07-21T02:01:43.857Z,22.89
2018-07-21T02:02:58.088Z,22.9
2018-07-21T02:04:12.786Z,22.92
2018-07-21T02:05:27.217Z,22.91
2018-07-21T02:06:41.632Z,22.9
2018-07-21T02:07:55.590Z,22.9
2018-07-21T02:09:10.357Z,22.88
2018-07-21T02:10:24.772Z,22.87
2018-07-21T02:11:39.462Z,22.85
2018-07-21T02:12:54.155Z,22.84
2018-07-21T02:14:09.009Z,22.82
2018-07-21T02:15:23.456Z,22.79
2018-07-21T02:16:37.624Z,22.77
2018-07-21T02:17:52.350Z,22.73
2018-07-21T02:19:06.809Z,22.7
2018-07-21T02:20:21.582Z,22.69
2018-07-21T02:21:36.038Z,22.69
2018-07-21T02:22:50.531Z,22.69
2018-07-21T02:24:05.260Z,22.7
2018-07-21T02:25:20.297Z,22.7
2018-07-21T02:26:34.236Z,22.7
2018-07-21T02:27:48.963Z,22.71
2018-07-21T02:29:03.679Z,22.72
2018-07-21T02:30:18.149Z,22.72
2018-07-21T02:31:32.586Z,22.74
2018-07-21T02:32:46.767Z,22.76
2018-07-21T02:34:01.205Z,22.76
2018-07-21T02:35:14.974Z,22.77
2018-07-21T02:36:29.900Z,22.78
2018-07-21T02:37:44.542Z,22.79
2018-07-21T02:38:59.517Z,22.8
2018-07-21T02:40:13.679Z,22.8
2018-07-21T02:41:28.649Z,22.8
2018-07-21T02:42:43.612Z,22.81
2018-07-21T02:43:58.062Z,22.81
2018-07-21T02:45:12.851Z,22.8
2018-07-21T02:46:27.797Z,22.78
2018-07-21T02:47:42.259Z,22.77
2018-07-21T02:48:56.715Z,22.76
2018-07-21T02:50:11.311Z,22.75
2018-07-21T02:51:25.270Z,22.75
2018-07-21T02:52:40.006Z,22.75
2018-07-21T02:53:54.192Z,22.74
2018-07-21T02:55:08.403Z,22.74
2018-07-21T02:56:22.944Z,22.74
2018-07-21T02:57:37.921Z,22.73
2018-07-21T02:58:52.400Z,22.73
2018-07-21T03:00:06.603Z,22.72
2018-07-21T03:01:21.326Z,22.72
2018-07-21T03:02:35.519Z,22.74
2018-07-21T03:03:49.714Z,22.74
2018-07-21T03:05:04.162Z,22.74
2018-07-21T03:06:18.677Z,22.74
2018-07-21T03:07:33.139Z,22.74
2018-07-21T03:10:02.282Z,22.73
2018-07-21T03:11:16.590Z,22.71
2018-07-21T03:12:31.042Z,22.71
2018-07-21T03:13:45.528Z,22.71
2018-07-21T03:15:00.238Z,22.73
2018-07-21T03:16:14.997Z,22.74
2018-07-21T03:17:29.420Z,22.74
2018-07-21T03:18:44.082Z,22.73
2018-07-21T03:19:57.547Z,22.72
2018-07-21T03:21:12.649Z,22.71
2018-07-21T03:22:27.328Z,22.68
2018-07-21T03:23:42.290Z,22.68
2018-07-21T03:24:56.227Z,22.65
2018-07-21T03:26:10.698Z,22.64
2018-07-21T03:27:25.516Z,22.62
2018-07-21T03:28:39.716Z,22.61
2018-07-21T03:29:53.884Z,22.61
2018-07-21T03:31:08.346Z,22.62
2018-07-21T03:32:23.056Z,22.62
2018-07-21T03:33:37.745Z,22.61
2018-07-21T03:34:52.447Z,22.6
2018-07-21T03:36:06.925Z,22.6
2018-07-21T03:37:21.354Z,22.58
2018-07-21T03:38:35.561Z,22.6
2018-07-21T03:39:50.204Z,22.6
2018-07-21T03:41:05.181Z,22.61
2018-07-21T03:42:19.186Z,22.62
2018-07-21T03:43:33.111Z,22.65
2018-07-21T03:44:47.569Z,22.69
2018-07-21T03:46:02.028Z,22.7
2018-07-21T03:47:16.660Z,22.74
2018-07-21T03:48:31.089Z,22.77
2018-07-21T03:49:45.774Z,22.79
2018-07-21T03:51:00.479Z,22.8
2018-07-21T03:52:14.809Z,22.85
2018-07-21T03:53:29.483Z,22.85
2018-07-21T03:54:43.678Z,22.86
2018-07-21T03:55:57.550Z,22.87
2018-07-21T03:57:11.979Z,22.88
2018-07-21T03:58:26.572Z,22.91
2018-07-21T03:59:41.065Z,22.96
2018-07-21T04:00:55.775Z,22.99
2018-07-21T04:02:10.223Z,23.02
2018-07-21T04:03:24.676Z,23.06
2018-07-21T04:04:39.616Z,23.14
2018-07-21T04:05:54.324Z,23.23
2018-07-21T04:07:08.563Z,23.31
2018-07-21T04:08:23.337Z,23.44
2018-07-21T04:09:37.550Z,23.52
2018-07-21T04:10:52.267Z,23.53
2018-07-21T04:12:06.955Z,23.5
2018-07-21T04:13:21.315Z,23.49
2018-07-21T04:14:36.044Z,23.49
2018-07-21T04:15:50.215Z,23.5
2018-07-21T04:17:04.683Z,23.52
2018-07-21T04:18:19.620Z,23.55
2018-07-21T04:19:34.570Z,23.54
2018-07-21T04:20:49.263Z,23.58
2018-07-21T04:22:03.770Z,23.61
2018-07-21T04:23:18.086Z,23.63
2018-07-21T04:24:32.517Z,23.62
2018-07-21T04:25:47.223Z,23.63
2018-07-21T04:27:01.390Z,23.64
2018-07-21T04:28:16.098Z,23.65
2018-07-21T04:29:30.276Z,23.67
2018-07-21T04:30:44.968Z,23.71
2018-07-21T04:31:59.930Z,23.72
2018-07-21T04:33:14.114Z,23.75
2018-07-21T04:34:28.881Z,23.76
2018-07-21T04:35:43.342Z,23.77
2018-07-21T04:36:58.009Z,23.76
2018-07-21T04:38:12.908Z,23.76
2018-07-21T04:39:27.972Z,23.74
2018-07-21T04:40:41.895Z,23.75
2018-07-21T04:41:56.594Z,23.74
2018-07-21T04:43:10.987Z,23.73
2018-07-21T04:44:25.724Z,23.7
2018-07-21T04:45:40.380Z,23.69
2018-07-21T04:46:55.054Z,23.68
2018-07-21T04:48:09.219Z,23.69
2018-07-21T04:49:23.859Z,23.7
2018-07-21T04:50:38.086Z,23.72
2018-07-21T04:51:52.287Z,23.73
2018-07-21T04:53:06.732Z,23.76
2018-07-21T04:54:21.436Z,23.8
2018-07-21T04:55:35.877Z,23.84
2018-07-21T04:56:50.594Z,23.87
2018-07-21T04:58:05.293Z,23.94
2018-07-21T04:59:20.252Z,24
2018-07-21T05:00:34.253Z,24.03
2018-07-21T05:01:49.342Z,24.1
2018-07-21T05:03:03.531Z,24.14
2018-07-21T05:04:18.018Z,24.17
2018-07-21T05:05:33.080Z,24.21
2018-07-21T05:06:48.003Z,24.22
2018-07-21T05:08:02.774Z,24.25
2018-07-21T05:09:17.233Z,24.27
2018-07-21T05:10:31.856Z,24.28
2018-07-21T05:11:46.477Z,24.28
2018-07-21T05:13:01.210Z,24.26
2018-07-21T05:14:15.628Z,24.25
2018-07-21T05:15:30.042Z,24.24
2018-07-21T05:16:44.213Z,24.23
2018-07-21T05:17:58.645Z,24.24
2018-07-21T05:19:12.845Z,24.23
2018-07-21T05:20:27.855Z,24.24
2018-07-21T05:21:42.597Z,24.25
2018-07-21T05:22:56.780Z,24.29
2018-07-21T05:24:10.710Z,24.31
2018-07-21T05:25:24.978Z,24.34
2018-07-21T05:26:39.436Z,24.37
2018-07-21T05:27:53.912Z,24.38
2018-07-21T05:29:08.621Z,24.4
2018-07-21T05:30:23.507Z,24.43
2018-07-21T05:31:38.208Z,24.48
2018-07-21T05:32:51.626Z,24.51
2018-07-21T05:34:06.089Z,24.55
2018-07-21T05:35:20.329Z,24.58
2018-07-21T05:36:35.317Z,24.61
2018-07-21T05:37:50.036Z,24.6
2018-07-21T05:39:04.528Z,24.61
2018-07-21T05:40:18.881Z,24.62
2018-07-21T05:41:33.354Z,24.67
2018-07-21T05:42:48.127Z,24.76
2018-07-21T05:44:03.156Z,24.87
2018-07-21T05:45:18.103Z,25.02
2018-07-21T05:46:32.443Z,25.18
2018-07-21T05:47:47.382Z,25.34
2018-07-21T05:49:01.828Z,25.51
2018-07-21T05:50:16.539Z,25.68
2018-07-21T05:51:30.725Z,25.85
2018-07-21T05:52:45.148Z,26.06
2018-07-21T05:53:59.588Z,26.25
2018-07-21T05:55:14.306Z,26.4
2018-07-21T05:56:28.049Z,26.53
2018-07-21T05:57:42.504Z,26.67
2018-07-21T05:58:56.205Z,26.83
2018-07-21T06:00:10.692Z,26.97
2018-07-21T06:01:25.256Z,27.09
2018-07-21T06:02:39.629Z,27.19
2018-07-21T06:03:53.870Z,27.27
2018-07-21T06:05:08.587Z,27.37
2018-07-21T06:06:23.088Z,27.49
2018-07-21T06:07:37.356Z,27.61
2018-07-21T06:08:51.072Z,27.75
2018-07-21T06:10:05.256Z,27.85
2018-07-21T06:11:19.476Z,27.95
2018-07-21T06:12:33.792Z,28.04
2018-07-21T06:13:48.787Z,28.11
2018-07-21T06:15:03.470Z,28.21
2018-07-21T06:16:18.437Z,28.31
2018-07-21T06:17:33.415Z,28.41
2018-07-21T06:18:47.723Z,28.52
2018-07-21T06:20:02.721Z,28.62
2018-07-21T06:21:17.521Z,28.75
2018-07-21T06:22:31.987Z,28.89
2018-07-21T06:23:46.814Z,29.02
2018-07-21T06:25:01.881Z,29.12
2018-07-21T06:26:16.997Z,29.16
2018-07-21T06:27:31.138Z,29.17
2018-07-21T06:28:45.534Z,29.19
2018-07-21T06:30:00.071Z,29.19
2018-07-21T06:31:14.539Z,29.17
2018-07-21T06:32:28.943Z,29.16
2018-07-21T06:33:43.419Z,29.13
2018-07-21T06:34:57.643Z,29.1
2018-07-21T06:36:12.114Z,29.09
2018-07-21T06:37:26.558Z,29.08
2018-07-21T06:38:41.672Z,29.08
2018-07-21T06:39:55.605Z,29.08
2018-07-21T06:41:10.332Z,29.05
2018-07-21T06:42:24.973Z,29.07
2018-07-21T06:43:39.563Z,29.08
2018-07-21T06:44:54.156Z,29.08
2018-07-21T06:46:08.369Z,29.08
2018-07-21T06:47:23.101Z,29.08
2018-07-21T06:48:38.194Z,29.06
2018-07-21T06:49:53.175Z,29.03
2018-07-21T06:51:08.595Z,29.03
2018-07-21T06:52:22.509Z,29.03
2018-07-21T06:53:37.072Z,29
2018-07-21T06:54:51.796Z,28.93
2018-07-21T06:56:06.950Z,28.87
2018-07-21T06:57:21.391Z,28.79
2018-07-21T06:58:36.085Z,28.7
2018-07-21T06:59:50.542Z,28.62
2018-07-21T07:01:04.993Z,28.56
2018-07-21T07:02:19.470Z,28.51
2018-07-21T07:03:34.439Z,28.47
2018-07-21T07:04:47.890Z,28.44
2018-07-21T07:06:02.615Z,28.38
2018-07-21T07:07:17.068Z,28.32
2018-07-21T07:08:32.233Z,28.27
2018-07-21T07:09:46.708Z,28.2
2018-07-21T07:11:00.911Z,28.16
2018-07-21T07:12:15.932Z,28.09
2018-07-21T07:13:30.838Z,28.04
2018-07-21T07:14:45.675Z,28
2018-07-21T07:16:00.201Z,27.96
2018-07-21T07:17:14.682Z,27.96
2018-07-21T07:18:28.636Z,27.95
2018-07-21T07:19:49.660Z,27.98
2018-07-21T07:21:03.608Z,28.02
2018-07-21T07:22:17.808Z,28.08
2018-07-21T07:23:32.757Z,28.09
2018-07-21T07:24:47.438Z,28.08
2018-07-21T07:26:01.896Z,28.07
2018-07-21T07:27:16.332Z,28.08
2018-07-21T07:28:30.922Z,28.13
2018-07-21T07:29:45.729Z,28.19
2018-07-21T07:31:00.172Z,28.25
2018-07-21T07:32:14.845Z,28.27
2018-07-21T07:33:29.022Z,28.31
2018-07-21T07:34:43.973Z,28.34
2018-07-21T07:35:58.945Z,28.39
2018-07-21T07:37:13.690Z,28.46
2018-07-21T07:38:28.147Z,28.56
2018-07-21T07:39:43.141Z,28.63
2018-07-21T07:40:57.841Z,28.69
2018-07-21T07:42:12.462Z,28.74
2018-07-21T07:43:27.567Z,28.8
2018-07-21T07:44:42.502Z,28.88
2018-07-21T07:45:57.475Z,28.93
2018-07-21T07:47:11.680Z,28.97
2018-07-21T07:48:26.195Z,28.97
2018-07-21T07:49:40.853Z,28.93
2018-07-21T07:50:55.275Z,28.93
2018-07-21T07:52:09.721Z,28.92
2018-07-21T07:53:24.474Z,28.93
2018-07-21T07:54:38.902Z,28.98
2018-07-21T07:55:53.128Z,29.03
2018-07-21T07:57:07.880Z,29.09
2018-07-21T07:58:22.826Z,29.13
2018-07-21T07:59:37.366Z,29.18
2018-07-21T08:00:52.046Z,29.23
2018-07-21T08:02:06.809Z,29.27
2018-07-21T08:03:21.517Z,29.3
2018-07-21T08:04:36.241Z,29.35
2018-07-21T08:05:51.160Z,29.42
2018-07-21T08:07:05.906Z,29.48
2018-07-21T08:08:20.972Z,29.52
2018-07-21T08:09:36.360Z,29.53
2018-07-21T08:10:51.571Z,29.53
2018-07-21T08:12:06.051Z,29.58
2018-07-21T08:13:20.495Z,29.62
2018-07-21T08:14:34.954Z,29.7
2018-07-21T08:15:49.556Z,29.79
2018-07-21T08:17:03.732Z,29.9
2018-07-21T08:18:18.297Z,30.02
2018-07-21T08:19:32.456Z,30.11
2018-07-21T08:20:47.042Z,30.2
2018-07-21T08:22:01.751Z,30.28
2018-07-21T08:23:16.220Z,30.38
2018-07-21T08:24:30.707Z,30.52
2018-07-21T08:25:45.677Z,30.61
2018-07-21T08:27:00.195Z,30.69
2018-07-21T08:28:15.115Z,30.77
2018-07-21T08:29:30.252Z,30.82
2018-07-21T08:30:45.255Z,30.82
2018-07-21T08:31:59.230Z,30.86
2018-07-21T08:33:13.700Z,30.93
2018-07-21T08:34:28.139Z,30.93
2018-07-21T08:35:43.368Z,30.95
2018-07-21T08:36:58.308Z,31
2018-07-21T08:38:12.791Z,31.03
2018-07-21T08:39:27.516Z,31.03
2018-07-21T08:40:42.359Z,31.08
2018-07-21T08:41:57.039Z,31.07
2018-07-21T08:43:11.264Z,31.04
2018-07-21T08:44:25.968Z,31.05
2018-07-21T08:45:41.828Z,31.05
2018-07-21T08:46:56.877Z,31.1
2018-07-21T08:48:11.379Z,31.15
2018-07-21T08:49:26.090Z,31.21
2018-07-21T08:50:40.865Z,31.24
2018-07-21T08:51:55.383Z,31.26
2018-07-21T08:53:09.384Z,31.27
2018-07-21T08:54:24.113Z,31.27
2018-07-21T08:55:38.385Z,31.25
2018-07-21T08:56:53.057Z,31.21
2018-07-21T08:58:07.522Z,31.14
2018-07-21T08:59:22.262Z,31.1
2018-07-21T09:00:36.481Z,31.02
2018-07-21T09:01:50.857Z,30.92
2018-07-21T09:03:05.345Z,30.84
2018-07-21T09:04:19.864Z,30.77
2018-07-21T09:05:33.630Z,30.69
2018-07-21T09:06:48.624Z,30.56
2018-07-21T09:08:02.820Z,30.43
2018-07-21T09:09:17.032Z,30.28
2018-07-21T09:10:31.510Z,30.15
2018-07-21T09:11:46.333Z,30.02
2018-07-21T09:13:00.821Z,29.88
2018-07-21T09:14:15.178Z,29.73
2018-07-21T09:15:29.905Z,29.59
2018-07-21T09:16:44.711Z,29.47
2018-07-21T09:17:58.942Z,29.36
2018-07-21T09:19:13.172Z,29.24
2018-07-21T09:20:27.956Z,29.16
2018-07-21T09:21:42.686Z,29.1
2018-07-21T09:22:57.229Z,29.04
2018-07-21T09:24:11.942Z,28.97
2018-07-21T09:25:26.648Z,28.89
2018-07-21T09:26:41.371Z,28.84
2018-07-21T09:27:56.107Z,28.8
2018-07-21T09:29:10.450Z,28.76
2018-07-21T09:30:25.395Z,28.76
2018-07-21T09:31:39.608Z,28.72
2018-07-21T09:32:54.540Z,28.65
2018-07-21T09:34:09.036Z,28.54
2018-07-21T09:35:23.609Z,28.43
2018-07-21T09:36:38.325Z,28.31
2018-07-21T09:37:52.639Z,28.23
2018-07-21T09:39:07.363Z,28.17
2018-07-21T09:40:22.358Z,28.1
2018-07-21T09:41:36.589Z,28.03
2018-07-21T09:42:51.751Z,27.94
2018-07-21T09:44:06.233Z,27.88
2018-07-21T09:45:21.015Z,27.83
2018-07-21T09:46:35.257Z,27.8
2018-07-21T09:47:50.527Z,27.76
2018-07-21T09:49:04.777Z,27.7
2018-07-21T09:50:18.954Z,27.64
2018-07-21T09:51:33.957Z,27.58
2018-07-21T09:52:48.556Z,27.55
2018-07-21T09:54:03.003Z,27.54
2018-07-21T09:55:16.722Z,27.53
2018-07-21T09:56:31.479Z,27.54
2018-07-21T09:57:45.957Z,27.55
2018-07-21T09:59:00.417Z,27.54
2018-07-21T10:00:15.158Z,27.49
2018-07-21T10:01:29.147Z,27.42
2018-07-21T10:02:43.733Z,27.38
2018-07-21T10:03:58.532Z,27.35
2018-07-21T10:05:12.733Z,27.34
2018-07-21T10:06:27.670Z,27.34
2018-07-21T10:07:42.393Z,27.29
2018-07-21T10:08:56.529Z,27.27
2018-07-21T10:10:10.984Z,27.21
2018-07-21T10:11:25.987Z,27.14
2018-07-21T10:12:40.960Z,27.06
2018-07-21T10:13:56.103Z,26.98
2018-07-21T10:15:10.302Z,26.92
2018-07-21T10:16:24.276Z,26.91
2018-07-21T10:17:38.738Z,26.94
2018-07-21T10:18:53.518Z,26.98
2018-07-21T10:20:08.479Z,27.03
2018-07-21T10:21:22.770Z,27.04
2018-07-21T10:22:36.979Z,27.04
2018-07-21T10:23:51.381Z,26.99
2018-07-21T10:25:06.077Z,27
2018-07-21T10:26:25.283Z,27
2018-07-21T10:27:39.508Z,27.01
2018-07-21T10:28:54.465Z,26.99
2018-07-21T10:30:09.354Z,26.96
2018-07-21T10:31:23.668Z,26.93
2018-07-21T10:32:38.163Z,26.92
2018-07-21T10:33:53.232Z,26.89
2018-07-21T10:35:07.707Z,26.79
2018-07-21T10:36:22.424Z,26.68
2018-07-21T10:37:36.431Z,26.58
2018-07-21T10:38:51.655Z,26.51
2018-07-21T10:40:06.493Z,26.46
2018-07-21T10:41:21.311Z,26.39
2018-07-21T10:42:36.058Z,26.31
2018-07-21T10:43:50.770Z,26.22
2018-07-21T10:45:05.490Z,26.1
2018-07-21T10:46:20.502Z,25.96
2018-07-21T10:47:34.496Z,25.87
2018-07-21T10:48:49.223Z,25.78
2018-07-21T10:50:03.565Z,25.72
2018-07-21T10:51:18.002Z,25.65
2018-07-21T10:52:32.682Z,25.63
2018-07-21T10:53:47.463Z,25.61
2018-07-21T10:55:01.859Z,25.55
2018-07-21T10:56:16.819Z,25.51
2018-07-21T10:57:31.752Z,25.44
2018-07-21T10:58:46.741Z,25.39
2018-07-21T11:00:01.420Z,25.34
2018-07-21T11:01:16.294Z,25.29
2018-07-21T11:02:31.285Z,25.26
2018-07-21T11:03:45.528Z,25.24
2018-07-21T11:05:00.117Z,25.23
2018-07-21T11:06:15.285Z,25.23
2018-07-21T11:07:29.723Z,25.28
2018-07-21T11:08:44.663Z,25.32
2018-07-21T11:09:59.544Z,25.39
2018-07-21T11:11:13.823Z,25.45
2018-07-21T11:12:28.560Z,25.53
2018-07-21T11:13:43.540Z,25.6
2018-07-21T11:14:58.255Z,25.64
2018-07-21T11:16:13.536Z,25.66
2018-07-21T11:17:28.694Z,25.69
2018-07-21T11:18:42.918Z,25.74
2018-07-21T11:19:57.618Z,25.8
2018-07-21T11:21:12.650Z,25.84
2018-07-21T11:22:27.363Z,25.88
2018-07-21T11:23:42.296Z,25.93
2018-07-21T11:24:57.180Z,25.97
2018-07-21T11:26:11.769Z,26.03
2018-07-21T11:27:26.498Z,26.04
2018-07-21T11:28:40.455Z,26.06
2018-07-21T11:29:54.707Z,26.03
2018-07-21T11:31:09.554Z,25.97
2018-07-21T11:32:24.044Z,25.89
2018-07-21T11:33:38.519Z,25.84
2018-07-21T11:34:53.032Z,25.79
2018-07-21T11:36:07.730Z,25.74
2018-07-21T11:37:24.045Z,25.68
2018-07-21T11:38:38.505Z,25.63
2018-07-21T11:39:52.804Z,25.56
2018-07-21T11:41:07.343Z,25.47
2018-07-21T11:42:21.823Z,25.44
2018-07-21T11:43:36.524Z,25.45
2018-07-21T11:44:51.014Z,25.48
2018-07-21T11:46:05.447Z,25.49
2018-07-21T11:47:19.593Z,25.52
2018-07-21T11:48:34.342Z,25.54
2018-07-21T11:49:49.067Z,25.55
2018-07-21T11:51:03.944Z,25.54
2018-07-21T11:52:18.709Z,25.53
2018-07-21T11:53:33.418Z,25.5
2018-07-21T11:54:48.635Z,25.48
2018-07-21T11:56:04.128Z,25.42
2018-07-21T11:57:19.102Z,25.37
2018-07-21T11:58:34.798Z,25.31
2018-07-21T11:59:49.975Z,25.28
2018-07-21T12:01:04.422Z,25.29
2018-07-21T12:02:18.574Z,25.3
2018-07-21T12:03:32.798Z,25.32
2018-07-21T12:04:47.504Z,25.35
2018-07-21T12:06:02.643Z,25.33
2018-07-21T12:07:17.139Z,25.27
2018-07-21T12:08:31.627Z,25.22
2018-07-21T12:09:46.432Z,25.22
2018-07-21T12:11:00.685Z,25.19
2018-07-21T12:12:15.850Z,25.18
2018-07-21T12:13:31.071Z,25.21
2018-07-21T12:14:46.353Z,25.22
2018-07-21T12:16:00.772Z,25.22
2018-07-21T12:17:15.609Z,25.19
2018-07-21T12:18:29.619Z,25.18
2018-07-21T12:19:44.112Z,25.17
2018-07-21T12:20:58.606Z,25.18
2018-07-21T12:22:12.942Z,25.2
2018-07-21T12:23:27.691Z,25.19
2018-07-21T12:24:41.933Z,25.18
2018-07-21T12:25:56.428Z,25.18
2018-07-21T12:27:11.408Z,25.18
2018-07-21T12:28:26.249Z,25.2
2018-07-21T12:29:40.460Z,25.2
2018-07-21T12:30:54.938Z,25.22
2018-07-21T12:32:09.308Z,25.25
2018-07-21T12:33:23.816Z,25.3
2018-07-21T12:34:38.120Z,25.36
2018-07-21T12:35:53.115Z,25.42
2018-07-21T12:37:07.582Z,25.49
2018-07-21T12:38:22.360Z,25.56
2018-07-21T12:39:36.382Z,25.58
2018-07-21T12:40:51.137Z,25.61
2018-07-21T12:42:05.922Z,25.62
2018-07-21T12:43:20.409Z,25.63
2018-07-21T12:44:34.929Z,25.65
2018-07-21T12:45:49.815Z,25.64
2018-07-21T12:47:04.953Z,25.64
2018-07-21T12:48:20.076Z,25.65
2018-07-21T12:49:34.047Z,25.66
2018-07-21T12:50:48.507Z,25.68
2018-07-21T12:52:02.926Z,25.7
2018-07-21T12:53:17.999Z,25.7
2018-07-21T12:54:32.216Z,25.73
2018-07-21T12:55:59.922Z,25.75
2018-07-21T12:57:14.610Z,25.78
2018-07-21T12:58:29.634Z,25.84
2018-07-21T12:59:44.383Z,25.89
2018-07-21T13:00:59.121Z,25.94
2018-07-21T13:02:13.599Z,25.99
2018-07-21T13:03:28.096Z,26.03
2018-07-21T13:04:42.814Z,26.08
2018-07-21T13:05:57.554Z,26.1
2018-07-21T13:07:11.505Z,26.12
2018-07-21T13:08:26.130Z,26.16
2018-07-21T13:09:41.132Z,26.2
2018-07-21T13:10:56.293Z,26.25
2018-07-21T13:12:10.781Z,26.29
2018-07-21T13:13:25.101Z,26.34
2018-07-21T13:14:39.623Z,26.4
2018-07-21T13:15:53.824Z,26.45
2018-07-21T13:17:08.622Z,26.48
2018-07-21T13:18:22.978Z,26.54
2018-07-21T13:19:37.434Z,26.59
2018-07-21T13:20:52.066Z,26.63
2018-07-21T13:22:06.035Z,26.72
2018-07-21T13:23:21.146Z,26.8
2018-07-21T13:24:36.311Z,26.88
2018-07-21T13:25:50.760Z,26.96
2018-07-21T13:27:05.475Z,27.04
2018-07-21T13:28:20.247Z,27.13
2018-07-21T13:29:34.476Z,27.22
2018-07-21T13:30:48.955Z,27.3
2018-07-21T13:32:03.431Z,27.39
2018-07-21T13:33:18.519Z,27.45
2018-07-21T13:34:33.034Z,27.51
2018-07-21T13:35:47.518Z,27.58
2018-07-21T13:37:01.677Z,27.64
2018-07-21T13:38:15.587Z,27.68
2018-07-21T13:39:30.296Z,27.68
2018-07-21T13:40:44.773Z,27.7
2018-07-21T13:41:59.513Z,27.7
2018-07-21T13:43:14.115Z,27.71
2018-07-21T13:44:28.067Z,27.73
2018-07-21T13:45:42.830Z,27.76
2018-07-21T13:46:57.780Z,27.82
2018-07-21T13:48:12.772Z,27.88
2018-07-21T13:49:27.547Z,27.95
2018-07-21T13:50:41.762Z,28.05
2018-07-21T13:51:56.239Z,28.11
2018-07-21T13:53:10.450Z,28.13
2018-07-21T13:54:25.041Z,28.13
2018-07-21T13:55:39.797Z,28.1
2018-07-21T13:56:54.756Z,28.07
2018-07-21T13:58:09.070Z,28.05
2018-07-21T13:59:24.037Z,28.04
2018-07-21T14:00:38.969Z,28.02
2018-07-21T14:01:54.012Z,28
2018-07-21T14:03:09.046Z,27.99
2018-07-21T14:04:23.730Z,27.99
2018-07-21T14:05:38.478Z,27.99
2018-07-21T14:06:53.223Z,27.98
2018-07-21T14:08:08.020Z,27.98
2018-07-21T14:09:23.340Z,27.98
2018-07-21T14:10:37.559Z,27.96
2018-07-21T14:11:51.843Z,27.97
2018-07-21T14:13:06.050Z,27.98
2018-07-21T14:14:27.100Z,27.99
2018-07-21T14:15:41.810Z,28
2018-07-21T14:16:57.235Z,28.01
2018-07-21T14:18:12.137Z,28.01
2018-07-21T14:19:26.800Z,28
2018-07-21T14:20:41.272Z,28.02
2018-07-21T14:21:55.740Z,28.05
2018-07-21T14:23:10.033Z,28.05
2018-07-21T14:24:24.384Z,28.04
2018-07-21T14:25:39.156Z,28.04
2018-07-21T14:26:53.675Z,28.06
2018-07-21T14:28:08.680Z,28.1
2018-07-21T14:29:23.436Z,28.14
2018-07-21T14:30:38.525Z,28.15
2018-07-21T14:31:53.249Z,28.19
2018-07-21T14:33:07.903Z,28.2
2018-07-21T14:34:23.090Z,28.23
2018-07-21T14:35:37.957Z,28.23
2018-07-21T14:36:52.743Z,28.27
2018-07-21T14:38:07.488Z,28.29
2018-07-21T14:39:21.679Z,28.29
2018-07-21T14:40:36.238Z,28.28
2018-07-21T14:41:51.335Z,28.3
2018-07-21T14:43:05.361Z,28.33
2018-07-21T14:44:19.820Z,28.34
2018-07-21T14:45:34.826Z,28.34
2018-07-21T14:46:49.291Z,28.29
2018-07-21T14:48:02.971Z,28.24
2018-07-21T14:49:17.447Z,28.19
2018-07-21T14:50:31.759Z,28.17
2018-07-21T14:51:46.728Z,28.19
2018-07-21T14:53:01.449Z,28.2
2018-07-21T14:54:15.923Z,28.21
2018-07-21T14:55:30.933Z,28.22
2018-07-21T14:56:45.394Z,28.24
2018-07-21T14:57:59.893Z,28.25
2018-07-21T14:59:14.615Z,28.24
2018-07-21T15:00:28.981Z,28.19
2018-07-21T15:01:43.251Z,28.1
2018-07-21T15:02:57.618Z,28
2018-07-21T15:04:11.856Z,27.91
2018-07-21T15:05:26.674Z,27.84
2018-07-21T15:06:42.107Z,27.8
2018-07-21T15:07:57.195Z,27.76
2018-07-21T15:09:12.144Z,27.7
2018-07-21T15:11:55.478Z,27.52
2018-07-21T15:13:09.460Z,27.42
2018-07-21T15:14:23.649Z,27.34
2018-07-21T15:15:38.561Z,27.32
2018-07-21T15:16:53.398Z,27.35
2018-07-21T15:18:08.114Z,27.36
2018-07-21T15:19:22.582Z,27.38
2018-07-21T15:20:38.019Z,27.43
2018-07-21T15:21:52.980Z,27.44
2018-07-21T15:23:07.960Z,27.41
2018-07-21T15:24:22.192Z,27.34
2018-07-21T15:25:36.908Z,27.26
2018-07-21T15:26:51.420Z,27.2
2018-07-21T15:28:05.882Z,27.18
2018-07-21T15:29:19.599Z,27.2
2018-07-21T15:30:34.552Z,27.21
2018-07-21T15:31:49.222Z,27.24
2018-07-21T15:33:03.714Z,27.24
2018-07-21T15:34:18.193Z,27.24
2018-07-21T15:35:33.017Z,27.25
2018-07-21T15:36:47.673Z,27.25
2018-07-21T15:38:01.878Z,27.24
2018-07-21T15:39:16.841Z,27.21
2018-07-21T15:40:31.815Z,27.16
2018-07-21T15:41:46.259Z,27.11
2018-07-21T15:43:01.251Z,27.07
2018-07-21T15:44:16.065Z,27.04
2018-07-21T15:45:30.699Z,27.02
2018-07-21T15:46:45.466Z,27.01
2018-07-21T15:48:00.282Z,27
2018-07-21T15:49:14.941Z,27
2018-07-21T15:50:29.980Z,26.99
2018-07-21T15:51:45.213Z,26.97
2018-07-21T15:52:59.692Z,26.96
2018-07-21T15:54:13.931Z,26.97
2018-07-21T15:55:28.730Z,27
2018-07-21T15:56:44.399Z,26.97
2018-07-21T15:57:58.605Z,26.93
2018-07-21T15:59:13.588Z,26.9
2018-07-21T16:00:28.882Z,26.88
2018-07-21T16:01:43.878Z,26.86
2018-07-21T16:02:59.212Z,26.86
2018-07-21T16:04:13.729Z,26.87
2018-07-21T16:05:28.208Z,26.86
2018-07-21T16:06:42.218Z,26.85
2018-07-21T16:07:56.830Z,26.85